sensor_id;sensor_type;location;lat;lon;timestamp;P1;durP1;ratioP1;P2;durP2;ratioP2
47625;SDS011;33342;45.574;9.252;2023-06-26T00:00:04;6.35;;;3.90;;
47625;SDS011;33342;45.574;9.252;2023-06-26T00:02:31;7.63;;;4.25;;
47625;SDS011;33342;45.574;9.252;2023-06-26T00:04:59;8.40;;;4.25;;
47625;SDS011;33342;45.574;9.252;2023-06-26T00:07:30;8.60;;;4.10;;
47625;SDS011;33342;45.574;9.252;2023-06-26T00:10:01;7.97;;;4.10;;
47625;SDS011;33342;45.574;9.252;2023-06-26T00:12:29;7.40;;;4.43;;
47625;SDS011;33342;45.574;9.252;2023-06-26T00:14:57;10.35;;;4.68;;
47625;SDS011;33342;45.574;9.252;2023-06-26T00:17:25;7.50;;;3.75;;
47625;SDS011;33342;45.574;9.252;2023-06-26T00:19:52;8.52;;;3.90;;
47625;SDS011;33342;45.574;9.252;2023-06-26T00:22:20;7.70;;;4.00;;
47625;SDS011;33342;45.574;9.252;2023-06-26T00:24:47;6.78;;;3.72;;
47625;SDS011;33342;45.574;9.252;2023-06-26T00:27:15;8.18;;;4.45;;
47625;SDS011;33342;45.574;9.252;2023-06-26T00:29:43;10.57;;;3.90;;
47625;SDS011;33342;45.574;9.252;2023-06-26T00:32:10;7.45;;;4.20;;
47625;SDS011;33342;45.574;9.252;2023-06-26T00:34:37;8.30;;;3.90;;
47625;SDS011;33342;45.574;9.252;2023-06-26T00:37:04;5.78;;;3.42;;
47625;SDS011;33342;45.574;9.252;2023-06-26T00:39:32;6.47;;;3.80;;
47625;SDS011;33342;45.574;9.252;2023-06-26T00:42:00;7.32;;;4.28;;
47625;SDS011;33342;45.574;9.252;2023-06-26T00:44:27;6.47;;;3.92;;
47625;SDS011;33342;45.574;9.252;2023-06-26T00:46:54;8.05;;;3.92;;
47625;SDS011;33342;45.574;9.252;2023-06-26T00:49:21;6.22;;;3.75;;
47625;SDS011;33342;45.574;9.252;2023-06-26T00:51:49;7.78;;;4.18;;
47625;SDS011;33342;45.574;9.252;2023-06-26T00:54:16;8.85;;;3.63;;
47625;SDS011;33342;45.574;9.252;2023-06-26T00:56:47;7.85;;;4.03;;
47625;SDS011;33342;45.574;9.252;2023-06-26T00:59:15;7.18;;;4.43;;
47625;SDS011;33342;45.574;9.252;2023-06-26T01:01:42;6.90;;;3.80;;
47625;SDS011;33342;45.574;9.252;2023-06-26T01:04:10;6.43;;;3.63;;
47625;SDS011;33342;45.574;9.252;2023-06-26T01:06:45;9.05;;;3.97;;
47625;SDS011;33342;45.574;9.252;2023-06-26T01:09:20;7.28;;;3.72;;
47625;SDS011;33342;45.574;9.252;2023-06-26T01:11:49;7.57;;;4.28;;
47625;SDS011;33342;45.574;9.252;2023-06-26T01:14:16;6.03;;;3.55;;
47625;SDS011;33342;45.574;9.252;2023-06-26T01:16:44;7.45;;;4.07;;
47625;SDS011;33342;45.574;9.252;2023-06-26T01:19:23;6.60;;;3.88;;
47625;SDS011;33342;45.574;9.252;2023-06-26T01:21:55;5.82;;;3.90;;
47625;SDS011;33342;45.574;9.252;2023-06-26T01:27:48;6.90;;;3.72;;
47625;SDS011;33342;45.574;9.252;2023-06-26T01:30:17;7.95;;;4.13;;
47625;SDS011;33342;45.574;9.252;2023-06-26T01:32:45;7.25;;;3.95;;
47625;SDS011;33342;45.574;9.252;2023-06-26T01:35:13;7.63;;;3.85;;
47625;SDS011;33342;45.574;9.252;2023-06-26T01:37:41;6.72;;;4.10;;
47625;SDS011;33342;45.574;9.252;2023-06-26T01:40:09;9.15;;;4.03;;
47625;SDS011;33342;45.574;9.252;2023-06-26T01:42:38;7.50;;;4.05;;
47625;SDS011;33342;45.574;9.252;2023-06-26T01:45:19;8.35;;;4.03;;
47625;SDS011;33342;45.574;9.252;2023-06-26T01:47:51;7.35;;;3.70;;
47625;SDS011;33342;45.574;9.252;2023-06-26T01:50:22;7.72;;;4.32;;
47625;SDS011;33342;45.574;9.252;2023-06-26T01:53:02;6.13;;;3.92;;
47625;SDS011;33342;45.574;9.252;2023-06-26T01:55:40;6.93;;;3.90;;
47625;SDS011;33342;45.574;9.252;2023-06-26T01:58:14;9.18;;;4.40;;
47625;SDS011;33342;45.574;9.252;2023-06-26T02:00:43;6.60;;;3.88;;
47625;SDS011;33342;45.574;9.252;2023-06-26T02:03:11;9.18;;;3.90;;
47625;SDS011;33342;45.574;9.252;2023-06-26T02:05:38;6.47;;;3.90;;
47625;SDS011;33342;45.574;9.252;2023-06-26T02:08:05;8.93;;;4.20;;
47625;SDS011;33342;45.574;9.252;2023-06-26T02:10:35;6.88;;;3.40;;
47625;SDS011;33342;45.574;9.252;2023-06-26T02:13:02;8.30;;;4.13;;
47625;SDS011;33342;45.574;9.252;2023-06-26T02:15:29;7.13;;;3.60;;
47625;SDS011;33342;45.574;9.252;2023-06-26T02:17:57;7.32;;;3.85;;
47625;SDS011;33342;45.574;9.252;2023-06-26T02:20:25;6.50;;;3.85;;
47625;SDS011;33342;45.574;9.252;2023-06-26T02:22:52;6.80;;;4.07;;
47625;SDS011;33342;45.574;9.252;2023-06-26T02:25:19;7.05;;;3.80;;
47625;SDS011;33342;45.574;9.252;2023-06-26T02:27:47;6.90;;;3.83;;
47625;SDS011;33342;45.574;9.252;2023-06-26T02:30:14;5.95;;;3.88;;
47625;SDS011;33342;45.574;9.252;2023-06-26T02:32:41;8.82;;;4.10;;
47625;SDS011;33342;45.574;9.252;2023-06-26T02:35:09;7.25;;;4.22;;
47625;SDS011;33342;45.574;9.252;2023-06-26T02:37:41;6.90;;;4.05;;
47625;SDS011;33342;45.574;9.252;2023-06-26T02:40:08;6.63;;;4.50;;
47625;SDS011;33342;45.574;9.252;2023-06-26T02:42:38;7.57;;;4.28;;
47625;SDS011;33342;45.574;9.252;2023-06-26T02:45:05;8.55;;;4.70;;
47625;SDS011;33342;45.574;9.252;2023-06-26T02:47:33;8.02;;;4.50;;
47625;SDS011;33342;45.574;9.252;2023-06-26T02:50:00;8.02;;;4.35;;
47625;SDS011;33342;45.574;9.252;2023-06-26T02:52:34;8.50;;;4.70;;
47625;SDS011;33342;45.574;9.252;2023-06-26T02:55:02;7.20;;;4.47;;
47625;SDS011;33342;45.574;9.252;2023-06-26T02:57:29;7.30;;;4.28;;
47625;SDS011;33342;45.574;9.252;2023-06-26T02:59:57;6.78;;;4.15;;
47625;SDS011;33342;45.574;9.252;2023-06-26T03:02:24;9.25;;;4.30;;
47625;SDS011;33342;45.574;9.252;2023-06-26T03:04:53;7.82;;;4.30;;
47625;SDS011;33342;45.574;9.252;2023-06-26T03:07:20;8.50;;;4.15;;
47625;SDS011;33342;45.574;9.252;2023-06-26T03:09:47;8.00;;;3.90;;
47625;SDS011;33342;45.574;9.252;2023-06-26T03:12:14;8.05;;;4.47;;
47625;SDS011;33342;45.574;9.252;2023-06-26T03:14:42;11.45;;;4.38;;
47625;SDS011;33342;45.574;9.252;2023-06-26T03:17:12;7.22;;;4.22;;
47625;SDS011;33342;45.574;9.252;2023-06-26T03:19:45;6.65;;;4.53;;
47625;SDS011;33342;45.574;9.252;2023-06-26T03:22:21;9.27;;;4.82;;
47625;SDS011;33342;45.574;9.252;2023-06-26T03:24:48;7.47;;;4.82;;
47625;SDS011;33342;45.574;9.252;2023-06-26T03:27:15;7.03;;;4.30;;
47625;SDS011;33342;45.574;9.252;2023-06-26T03:29:46;8.88;;;4.57;;
47625;SDS011;33342;45.574;9.252;2023-06-26T03:32:13;7.30;;;4.72;;
47625;SDS011;33342;45.574;9.252;2023-06-26T03:34:41;7.38;;;4.22;;
47625;SDS011;33342;45.574;9.252;2023-06-26T03:37:08;8.07;;;5.07;;
47625;SDS011;33342;45.574;9.252;2023-06-26T03:39:35;6.47;;;4.00;;
47625;SDS011;33342;45.574;9.252;2023-06-26T03:42:02;8.50;;;4.45;;
47625;SDS011;33342;45.574;9.252;2023-06-26T03:44:29;7.70;;;4.15;;
47625;SDS011;33342;45.574;9.252;2023-06-26T03:46:57;7.95;;;4.50;;
47625;SDS011;33342;45.574;9.252;2023-06-26T03:49:24;11.48;;;4.25;;
47625;SDS011;33342;45.574;9.252;2023-06-26T03:51:52;7.45;;;4.43;;
47625;SDS011;33342;45.574;9.252;2023-06-26T03:54:20;7.97;;;4.85;;
47625;SDS011;33342;45.574;9.252;2023-06-26T03:56:48;11.20;;;6.15;;
47625;SDS011;33342;45.574;9.252;2023-06-26T03:59:15;8.43;;;4.75;;
47625;SDS011;33342;45.574;9.252;2023-06-26T04:01:42;6.40;;;4.40;;
47625;SDS011;33342;45.574;9.252;2023-06-26T04:04:09;6.10;;;4.03;;
47625;SDS011;33342;45.574;9.252;2023-06-26T04:06:37;13.38;;;4.90;;
47625;SDS011;33342;45.574;9.252;2023-06-26T04:09:04;9.43;;;4.55;;
47625;SDS011;33342;45.574;9.252;2023-06-26T04:11:31;8.55;;;4.88;;
47625;SDS011;33342;45.574;9.252;2023-06-26T04:13:58;8.10;;;4.57;;
47625;SDS011;33342;45.574;9.252;2023-06-26T04:16:25;8.20;;;4.45;;
47625;SDS011;33342;45.574;9.252;2023-06-26T04:18:53;6.95;;;4.50;;
47625;SDS011;33342;45.574;9.252;2023-06-26T04:21:23;6.97;;;4.15;;
47625;SDS011;33342;45.574;9.252;2023-06-26T04:23:53;7.13;;;4.00;;
47625;SDS011;33342;45.574;9.252;2023-06-26T04:26:21;8.05;;;4.32;;
47625;SDS011;33342;45.574;9.252;2023-06-26T04:28:49;7.95;;;4.88;;
47625;SDS011;33342;45.574;9.252;2023-06-26T04:31:16;7.13;;;4.47;;
47625;SDS011;33342;45.574;9.252;2023-06-26T04:33:43;7.88;;;4.95;;
47625;SDS011;33342;45.574;9.252;2023-06-26T04:36:10;9.13;;;5.00;;
47625;SDS011;33342;45.574;9.252;2023-06-26T04:38:38;8.45;;;4.28;;
47625;SDS011;33342;45.574;9.252;2023-06-26T04:41:05;6.63;;;4.35;;
47625;SDS011;33342;45.574;9.252;2023-06-26T04:43:32;9.27;;;4.18;;
47625;SDS011;33342;45.574;9.252;2023-06-26T04:45:59;9.25;;;4.75;;
47625;SDS011;33342;45.574;9.252;2023-06-26T04:48:27;10.48;;;4.93;;
47625;SDS011;33342;45.574;9.252;2023-06-26T04:50:54;8.25;;;4.10;;
47625;SDS011;33342;45.574;9.252;2023-06-26T04:53:22;8.27;;;4.60;;
47625;SDS011;33342;45.574;9.252;2023-06-26T04:55:50;8.18;;;4.68;;
47625;SDS011;33342;45.574;9.252;2023-06-26T04:58:18;8.20;;;4.10;;
47625;SDS011;33342;45.574;9.252;2023-06-26T05:00:45;8.73;;;4.38;;
47625;SDS011;33342;45.574;9.252;2023-06-26T05:03:13;10.05;;;4.93;;
47625;SDS011;33342;45.574;9.252;2023-06-26T05:05:43;8.05;;;4.47;;
47625;SDS011;33342;45.574;9.252;2023-06-26T05:08:17;9.13;;;4.22;;
47625;SDS011;33342;45.574;9.252;2023-06-26T05:10:47;7.05;;;4.38;;
47625;SDS011;33342;45.574;9.252;2023-06-26T05:13:14;8.15;;;4.03;;
47625;SDS011;33342;45.574;9.252;2023-06-26T05:15:45;7.18;;;4.50;;
47625;SDS011;33342;45.574;9.252;2023-06-26T05:18:13;8.70;;;4.70;;
47625;SDS011;33342;45.574;9.252;2023-06-26T05:20:40;7.72;;;4.28;;
47625;SDS011;33342;45.574;9.252;2023-06-26T05:23:08;6.93;;;4.07;;
47625;SDS011;33342;45.574;9.252;2023-06-26T05:25:38;9.75;;;3.97;;
47625;SDS011;33342;45.574;9.252;2023-06-26T05:28:05;6.68;;;4.20;;
47625;SDS011;33342;45.574;9.252;2023-06-26T05:30:33;13.48;;;4.45;;
47625;SDS011;33342;45.574;9.252;2023-06-26T05:33:02;9.23;;;4.13;;
47625;SDS011;33342;45.574;9.252;2023-06-26T05:35:30;8.32;;;3.88;;
47625;SDS011;33342;45.574;9.252;2023-06-26T05:37:58;10.23;;;4.65;;
47625;SDS011;33342;45.574;9.252;2023-06-26T05:40:25;5.95;;;3.80;;
47625;SDS011;33342;45.574;9.252;2023-06-26T05:42:53;8.82;;;4.15;;
47625;SDS011;33342;45.574;9.252;2023-06-26T05:45:20;9.27;;;3.70;;
47625;SDS011;33342;45.574;9.252;2023-06-26T05:47:48;6.20;;;3.83;;
47625;SDS011;33342;45.574;9.252;2023-06-26T05:50:17;9.80;;;6.43;;
47625;SDS011;33342;45.574;9.252;2023-06-26T05:52:46;8.35;;;4.60;;
47625;SDS011;33342;45.574;9.252;2023-06-26T05:55:13;8.68;;;4.68;;
47625;SDS011;33342;45.574;9.252;2023-06-26T05:57:41;7.53;;;4.35;;
47625;SDS011;33342;45.574;9.252;2023-06-26T06:00:10;8.85;;;4.13;;
47625;SDS011;33342;45.574;9.252;2023-06-26T06:02:42;8.25;;;4.82;;
47625;SDS011;33342;45.574;9.252;2023-06-26T06:05:09;9.40;;;4.53;;
47625;SDS011;33342;45.574;9.252;2023-06-26T06:07:37;9.30;;;4.50;;
47625;SDS011;33342;45.574;9.252;2023-06-26T06:10:04;9.68;;;4.95;;
47625;SDS011;33342;45.574;9.252;2023-06-26T06:12:31;9.10;;;4.40;;
47625;SDS011;33342;45.574;9.252;2023-06-26T06:14:59;9.30;;;4.13;;
47625;SDS011;33342;45.574;9.252;2023-06-26T06:17:26;9.23;;;4.40;;
47625;SDS011;33342;45.574;9.252;2023-06-26T06:19:53;9.63;;;4.80;;
47625;SDS011;33342;45.574;9.252;2023-06-26T06:22:20;8.30;;;5.43;;
47625;SDS011;33342;45.574;9.252;2023-06-26T06:24:50;8.23;;;5.00;;
47625;SDS011;33342;45.574;9.252;2023-06-26T06:27:18;8.95;;;4.75;;
47625;SDS011;33342;45.574;9.252;2023-06-26T06:29:45;11.63;;;5.03;;
47625;SDS011;33342;45.574;9.252;2023-06-26T06:32:12;8.25;;;4.93;;
47625;SDS011;33342;45.574;9.252;2023-06-26T06:34:40;10.15;;;4.88;;
47625;SDS011;33342;45.574;9.252;2023-06-26T06:37:07;10.32;;;4.63;;
47625;SDS011;33342;45.574;9.252;2023-06-26T06:39:34;9.95;;;4.97;;
47625;SDS011;33342;45.574;9.252;2023-06-26T06:42:01;9.63;;;4.07;;
47625;SDS011;33342;45.574;9.252;2023-06-26T06:44:29;9.43;;;5.03;;
47625;SDS011;33342;45.574;9.252;2023-06-26T06:46:57;10.13;;;4.95;;
47625;SDS011;33342;45.574;9.252;2023-06-26T06:49:24;7.70;;;4.97;;
47625;SDS011;33342;45.574;9.252;2023-06-26T06:51:51;8.20;;;4.78;;
47625;SDS011;33342;45.574;9.252;2023-06-26T06:54:18;13.65;;;5.43;;
47625;SDS011;33342;45.574;9.252;2023-06-26T06:56:46;10.48;;;5.30;;
47625;SDS011;33342;45.574;9.252;2023-06-26T06:59:13;9.68;;;4.82;;
47625;SDS011;33342;45.574;9.252;2023-06-26T07:01:40;10.35;;;5.05;;
47625;SDS011;33342;45.574;9.252;2023-06-26T07:04:07;9.75;;;4.53;;
47625;SDS011;33342;45.574;9.252;2023-06-26T07:06:35;8.18;;;4.60;;
47625;SDS011;33342;45.574;9.252;2023-06-26T07:09:02;11.07;;;5.65;;
47625;SDS011;33342;45.574;9.252;2023-06-26T07:11:29;10.27;;;4.93;;
47625;SDS011;33342;45.574;9.252;2023-06-26T07:13:57;10.43;;;5.32;;
47625;SDS011;33342;45.574;9.252;2023-06-26T07:16:24;8.07;;;4.90;;
47625;SDS011;33342;45.574;9.252;2023-06-26T07:18:51;10.55;;;4.63;;
47625;SDS011;33342;45.574;9.252;2023-06-26T07:21:18;8.00;;;4.57;;
47625;SDS011;33342;45.574;9.252;2023-06-26T07:23:45;7.28;;;4.22;;
47625;SDS011;33342;45.574;9.252;2023-06-26T07:26:13;9.25;;;4.28;;
47625;SDS011;33342;45.574;9.252;2023-06-26T07:28:42;10.20;;;4.63;;
47625;SDS011;33342;45.574;9.252;2023-06-26T07:31:09;7.38;;;4.57;;
47625;SDS011;33342;45.574;9.252;2023-06-26T07:33:36;8.82;;;4.32;;
47625;SDS011;33342;45.574;9.252;2023-06-26T07:36:03;7.88;;;4.60;;
47625;SDS011;33342;45.574;9.252;2023-06-26T07:38:31;10.98;;;4.68;;
47625;SDS011;33342;45.574;9.252;2023-06-26T07:40:58;8.10;;;4.90;;
47625;SDS011;33342;45.574;9.252;2023-06-26T07:43:25;7.88;;;4.53;;
47625;SDS011;33342;45.574;9.252;2023-06-26T07:45:52;8.98;;;3.88;;
47625;SDS011;33342;45.574;9.252;2023-06-26T07:48:20;8.88;;;4.68;;
47625;SDS011;33342;45.574;9.252;2023-06-26T07:50:47;8.27;;;4.82;;
47625;SDS011;33342;45.574;9.252;2023-06-26T07:53:14;9.45;;;4.68;;
47625;SDS011;33342;45.574;9.252;2023-06-26T07:55:42;9.90;;;4.88;;
47625;SDS011;33342;45.574;9.252;2023-06-26T07:58:09;8.05;;;5.07;;
47625;SDS011;33342;45.574;9.252;2023-06-26T08:00:36;13.98;;;6.70;;
47625;SDS011;33342;45.574;9.252;2023-06-26T08:03:04;9.32;;;5.40;;
47625;SDS011;33342;45.574;9.252;2023-06-26T08:05:37;15.98;;;8.38;;
47625;SDS011;33342;45.574;9.252;2023-06-26T08:08:05;10.73;;;4.95;;
47625;SDS011;33342;45.574;9.252;2023-06-26T08:10:33;10.07;;;4.43;;
47625;SDS011;33342;45.574;9.252;2023-06-26T08:13:01;8.40;;;4.35;;
47625;SDS011;33342;45.574;9.252;2023-06-26T08:15:28;7.95;;;4.88;;
47625;SDS011;33342;45.574;9.252;2023-06-26T08:17:55;7.95;;;4.18;;
47625;SDS011;33342;45.574;9.252;2023-06-26T08:20:22;8.57;;;4.25;;
47625;SDS011;33342;45.574;9.252;2023-06-26T08:22:49;9.10;;;4.93;;
47625;SDS011;33342;45.574;9.252;2023-06-26T08:25:18;7.97;;;4.63;;
47625;SDS011;33342;45.574;9.252;2023-06-26T08:27:46;7.68;;;4.80;;
47625;SDS011;33342;45.574;9.252;2023-06-26T08:30:14;8.00;;;4.63;;
47625;SDS011;33342;45.574;9.252;2023-06-26T08:32:41;9.55;;;4.50;;
47625;SDS011;33342;45.574;9.252;2023-06-26T08:35:08;8.52;;;4.45;;
47625;SDS011;33342;45.574;9.252;2023-06-26T08:37:36;8.35;;;4.80;;
47625;SDS011;33342;45.574;9.252;2023-06-26T08:40:04;8.98;;;4.50;;
47625;SDS011;33342;45.574;9.252;2023-06-26T08:42:33;8.75;;;4.95;;
47625;SDS011;33342;45.574;9.252;2023-06-26T08:45:01;14.13;;;5.00;;
47625;SDS011;33342;45.574;9.252;2023-06-26T08:47:30;14.85;;;9.40;;
47625;SDS011;33342;45.574;9.252;2023-06-26T08:50:04;10.20;;;5.00;;
47625;SDS011;33342;45.574;9.252;2023-06-26T08:52:43;8.25;;;4.40;;
47625;SDS011;33342;45.574;9.252;2023-06-26T08:55:17;7.22;;;4.65;;
47625;SDS011;33342;45.574;9.252;2023-06-26T08:57:48;14.57;;;4.85;;
47625;SDS011;33342;45.574;9.252;2023-06-26T09:00:16;8.75;;;4.40;;
47625;SDS011;33342;45.574;9.252;2023-06-26T09:02:44;9.50;;;4.75;;
47625;SDS011;33342;45.574;9.252;2023-06-26T09:05:12;8.88;;;4.70;;
47625;SDS011;33342;45.574;9.252;2023-06-26T09:07:39;8.40;;;4.55;;
47625;SDS011;33342;45.574;9.252;2023-06-26T09:10:06;8.85;;;4.43;;
47625;SDS011;33342;45.574;9.252;2023-06-26T09:12:34;9.23;;;4.72;;
47625;SDS011;33342;45.574;9.252;2023-06-26T09:15:03;8.90;;;4.50;;
47625;SDS011;33342;45.574;9.252;2023-06-26T09:17:33;7.35;;;4.38;;
47625;SDS011;33342;45.574;9.252;2023-06-26T09:20:05;9.50;;;4.68;;
47625;SDS011;33342;45.574;9.252;2023-06-26T09:22:38;9.68;;;4.82;;
47625;SDS011;33342;45.574;9.252;2023-06-26T09:25:07;9.50;;;5.38;;
47625;SDS011;33342;45.574;9.252;2023-06-26T09:27:35;8.77;;;5.13;;
47625;SDS011;33342;45.574;9.252;2023-06-26T09:30:03;7.30;;;4.57;;
47625;SDS011;33342;45.574;9.252;2023-06-26T09:32:31;8.68;;;4.80;;
47625;SDS011;33342;45.574;9.252;2023-06-26T09:35:01;11.15;;;4.53;;
47625;SDS011;33342;45.574;9.252;2023-06-26T09:37:29;8.70;;;4.93;;
47625;SDS011;33342;45.574;9.252;2023-06-26T09:39:57;9.05;;;5.13;;
47625;SDS011;33342;45.574;9.252;2023-06-26T09:42:25;10.68;;;5.88;;
47625;SDS011;33342;45.574;9.252;2023-06-26T09:44:52;12.00;;;5.55;;
47625;SDS011;33342;45.574;9.252;2023-06-26T09:47:20;10.35;;;5.32;;
47625;SDS011;33342;45.574;9.252;2023-06-26T09:49:51;12.15;;;5.85;;
47625;SDS011;33342;45.574;9.252;2023-06-26T09:52:19;11.00;;;6.07;;
47625;SDS011;33342;45.574;9.252;2023-06-26T09:54:46;11.25;;;6.88;;
47625;SDS011;33342;45.574;9.252;2023-06-26T09:57:15;11.45;;;5.63;;
47625;SDS011;33342;45.574;9.252;2023-06-26T09:59:43;10.70;;;5.90;;
47625;SDS011;33342;45.574;9.252;2023-06-26T10:02:14;10.18;;;4.80;;
47625;SDS011;33342;45.574;9.252;2023-06-26T10:04:41;9.00;;;5.40;;
47625;SDS011;33342;45.574;9.252;2023-06-26T10:07:10;7.68;;;5.03;;
47625;SDS011;33342;45.574;9.252;2023-06-26T10:09:41;8.98;;;4.85;;
47625;SDS011;33342;45.574;9.252;2023-06-26T10:12:19;9.25;;;5.28;;
47625;SDS011;33342;45.574;9.252;2023-06-26T10:14:51;8.15;;;5.22;;
47625;SDS011;33342;45.574;9.252;2023-06-26T10:17:20;9.70;;;6.20;;
47625;SDS011;33342;45.574;9.252;2023-06-26T10:19:48;10.07;;;5.30;;
47625;SDS011;33342;45.574;9.252;2023-06-26T10:22:18;8.98;;;6.38;;
47625;SDS011;33342;45.574;9.252;2023-06-26T10:24:48;10.60;;;5.82;;
47625;SDS011;33342;45.574;9.252;2023-06-26T10:27:17;9.23;;;5.18;;
47625;SDS011;33342;45.574;9.252;2023-06-26T10:29:48;10.27;;;5.38;;
47625;SDS011;33342;45.574;9.252;2023-06-26T10:32:25;7.65;;;4.80;;
47625;SDS011;33342;45.574;9.252;2023-06-26T10:34:53;16.52;;;6.50;;
47625;SDS011;33342;45.574;9.252;2023-06-26T10:37:40;17.00;;;10.15;;
47625;SDS011;33342;45.574;9.252;2023-06-26T10:40:08;9.68;;;5.40;;
47625;SDS011;33342;45.574;9.252;2023-06-26T10:42:36;9.85;;;5.15;;
47625;SDS011;33342;45.574;9.252;2023-06-26T10:45:17;8.80;;;5.78;;
47625;SDS011;33342;45.574;9.252;2023-06-26T10:47:47;11.45;;;6.53;;
47625;SDS011;33342;45.574;9.252;2023-06-26T10:50:19;11.70;;;5.65;;
47625;SDS011;33342;45.574;9.252;2023-06-26T10:55:36;9.75;;;6.50;;
47625;SDS011;33342;45.574;9.252;2023-06-26T11:01:20;11.90;;;6.50;;
47625;SDS011;33342;45.574;9.252;2023-06-26T11:06:32;10.63;;;6.55;;
47625;SDS011;33342;45.574;9.252;2023-06-26T11:14:22;10.40;;;6.90;;
47625;SDS011;33342;45.574;9.252;2023-06-26T11:16:50;10.15;;;5.85;;
47625;SDS011;33342;45.574;9.252;2023-06-26T11:19:18;17.42;;;6.85;;
47625;SDS011;33342;45.574;9.252;2023-06-26T11:21:47;10.20;;;5.90;;
47625;SDS011;33342;45.574;9.252;2023-06-26T11:24:15;10.27;;;5.95;;
47625;SDS011;33342;45.574;9.252;2023-06-26T11:26:43;9.85;;;5.50;;
47625;SDS011;33342;45.574;9.252;2023-06-26T11:29:11;8.13;;;5.85;;
47625;SDS011;33342;45.574;9.252;2023-06-26T11:31:40;10.95;;;5.65;;
47625;SDS011;33342;45.574;9.252;2023-06-26T11:34:11;11.05;;;6.20;;
47625;SDS011;33342;45.574;9.252;2023-06-26T11:36:40;9.90;;;5.68;;
47625;SDS011;33342;45.574;9.252;2023-06-26T11:39:13;9.05;;;6.25;;
47625;SDS011;33342;45.574;9.252;2023-06-26T11:41:40;10.52;;;5.78;;
47625;SDS011;33342;45.574;9.252;2023-06-26T11:44:08;14.70;;;7.47;;
47625;SDS011;33342;45.574;9.252;2023-06-26T11:46:37;11.25;;;6.50;;
47625;SDS011;33342;45.574;9.252;2023-06-26T11:49:05;9.40;;;5.93;;
47625;SDS011;33342;45.574;9.252;2023-06-26T11:51:33;12.25;;;6.50;;
47625;SDS011;33342;45.574;9.252;2023-06-26T11:54:03;11.50;;;6.85;;
47625;SDS011;33342;45.574;9.252;2023-06-26T11:56:31;11.00;;;7.10;;
47625;SDS011;33342;45.574;9.252;2023-06-26T11:59:00;14.38;;;6.40;;
47625;SDS011;33342;45.574;9.252;2023-06-26T12:01:49;10.82;;;6.07;;
47625;SDS011;33342;45.574;9.252;2023-06-26T12:04:16;12.10;;;5.75;;
47625;SDS011;33342;45.574;9.252;2023-06-26T12:06:46;11.52;;;6.72;;
47625;SDS011;33342;45.574;9.252;2023-06-26T12:09:17;11.50;;;6.10;;
47625;SDS011;33342;45.574;9.252;2023-06-26T12:11:46;13.43;;;6.05;;
47625;SDS011;33342;45.574;9.252;2023-06-26T12:14:19;9.38;;;6.60;;
47625;SDS011;33342;45.574;9.252;2023-06-26T12:16:47;11.15;;;6.13;;
47625;SDS011;33342;45.574;9.252;2023-06-26T12:19:14;14.77;;;6.28;;
47625;SDS011;33342;45.574;9.252;2023-06-26T12:24:14;9.27;;;6.60;;
47625;SDS011;33342;45.574;9.252;2023-06-26T12:26:47;9.25;;;6.50;;
47625;SDS011;33342;45.574;9.252;2023-06-26T12:29:20;13.05;;;6.97;;
47625;SDS011;33342;45.574;9.252;2023-06-26T12:31:51;13.10;;;6.90;;
47625;SDS011;33342;45.574;9.252;2023-06-26T12:34:20;16.15;;;6.57;;
47625;SDS011;33342;45.574;9.252;2023-06-26T12:36:50;11.50;;;6.88;;
47625;SDS011;33342;45.574;9.252;2023-06-26T12:39:18;14.20;;;7.25;;
47625;SDS011;33342;45.574;9.252;2023-06-26T12:44:25;8.95;;;6.18;;
47625;SDS011;33342;45.574;9.252;2023-06-26T12:46:54;10.25;;;6.45;;
47625;SDS011;33342;45.574;9.252;2023-06-26T12:49:39;9.77;;;6.20;;
47625;SDS011;33342;45.574;9.252;2023-06-26T12:52:08;9.40;;;6.03;;
47625;SDS011;33342;45.574;9.252;2023-06-26T12:54:39;9.25;;;5.65;;
47625;SDS011;33342;45.574;9.252;2023-06-26T12:57:07;10.65;;;6.50;;
47625;SDS011;33342;45.574;9.252;2023-06-26T12:59:35;9.88;;;5.93;;
47625;SDS011;33342;45.574;9.252;2023-06-26T13:02:04;11.90;;;6.45;;
47625;SDS011;33342;45.574;9.252;2023-06-26T13:04:32;10.25;;;7.30;;
47625;SDS011;33342;45.574;9.252;2023-06-26T13:06:59;10.30;;;6.80;;
47625;SDS011;33342;45.574;9.252;2023-06-26T13:09:31;12.10;;;6.90;;
47625;SDS011;33342;45.574;9.252;2023-06-26T13:12:00;10.50;;;6.15;;
47625;SDS011;33342;45.574;9.252;2023-06-26T13:14:28;9.20;;;6.68;;
47625;SDS011;33342;45.574;9.252;2023-06-26T13:16:55;13.15;;;6.10;;
47625;SDS011;33342;45.574;9.252;2023-06-26T13:19:22;11.50;;;7.38;;
47625;SDS011;33342;45.574;9.252;2023-06-26T13:21:49;11.63;;;6.38;;
47625;SDS011;33342;45.574;9.252;2023-06-26T13:24:16;9.90;;;6.25;;
47625;SDS011;33342;45.574;9.252;2023-06-26T13:26:44;12.55;;;6.65;;
47625;SDS011;33342;45.574;9.252;2023-06-26T13:29:11;11.73;;;6.32;;
47625;SDS011;33342;45.574;9.252;2023-06-26T13:31:38;9.98;;;5.78;;
47625;SDS011;33342;45.574;9.252;2023-06-26T13:34:05;9.90;;;6.47;;
47625;SDS011;33342;45.574;9.252;2023-06-26T13:36:32;9.45;;;6.03;;
47625;SDS011;33342;45.574;9.252;2023-06-26T13:39:02;13.75;;;6.88;;
47625;SDS011;33342;45.574;9.252;2023-06-26T13:41:30;7.43;;;5.78;;
47625;SDS011;33342;45.574;9.252;2023-06-26T13:43:57;11.68;;;5.70;;
47625;SDS011;33342;45.574;9.252;2023-06-26T13:46:36;9.68;;;5.90;;
47625;SDS011;33342;45.574;9.252;2023-06-26T13:49:03;11.13;;;6.35;;
47625;SDS011;33342;45.574;9.252;2023-06-26T13:51:30;11.63;;;6.25;;
47625;SDS011;33342;45.574;9.252;2023-06-26T13:53:57;8.57;;;5.90;;
47625;SDS011;33342;45.574;9.252;2023-06-26T13:56:27;11.18;;;6.22;;
47625;SDS011;33342;45.574;9.252;2023-06-26T13:58:57;10.70;;;6.30;;
47625;SDS011;33342;45.574;9.252;2023-06-26T14:01:25;10.68;;;6.30;;
47625;SDS011;33342;45.574;9.252;2023-06-26T14:03:52;8.63;;;5.97;;
47625;SDS011;33342;45.574;9.252;2023-06-26T14:06:19;9.15;;;6.10;;
47625;SDS011;33342;45.574;9.252;2023-06-26T14:08:46;13.45;;;6.10;;
47625;SDS011;33342;45.574;9.252;2023-06-26T14:11:13;7.70;;;4.88;;
47625;SDS011;33342;45.574;9.252;2023-06-26T14:13:42;9.50;;;5.90;;
47625;SDS011;33342;45.574;9.252;2023-06-26T14:16:09;12.23;;;5.90;;
47625;SDS011;33342;45.574;9.252;2023-06-26T14:18:37;10.50;;;6.63;;
47625;SDS011;33342;45.574;9.252;2023-06-26T14:21:04;10.75;;;5.75;;
47625;SDS011;33342;45.574;9.252;2023-06-26T14:23:32;9.02;;;5.70;;
47625;SDS011;33342;45.574;9.252;2023-06-26T14:25:59;10.90;;;5.75;;
47625;SDS011;33342;45.574;9.252;2023-06-26T14:28:26;11.82;;;5.70;;
47625;SDS011;33342;45.574;9.252;2023-06-26T14:30:53;8.45;;;5.18;;
47625;SDS011;33342;45.574;9.252;2023-06-26T14:33:20;9.25;;;5.43;;
47625;SDS011;33342;45.574;9.252;2023-06-26T14:35:47;10.88;;;5.38;;
47625;SDS011;33342;45.574;9.252;2023-06-26T14:38:14;9.27;;;5.68;;
47625;SDS011;33342;45.574;9.252;2023-06-26T14:40:41;9.57;;;5.80;;
47625;SDS011;33342;45.574;9.252;2023-06-26T14:43:09;9.60;;;5.88;;
47625;SDS011;33342;45.574;9.252;2023-06-26T14:45:37;9.00;;;5.72;;
47625;SDS011;33342;45.574;9.252;2023-06-26T14:48:05;9.50;;;5.82;;
47625;SDS011;33342;45.574;9.252;2023-06-26T14:50:32;8.57;;;5.50;;
47625;SDS011;33342;45.574;9.252;2023-06-26T14:52:59;9.95;;;5.60;;
47625;SDS011;33342;45.574;9.252;2023-06-26T14:55:26;8.93;;;4.95;;
47625;SDS011;33342;45.574;9.252;2023-06-26T14:57:53;8.55;;;5.05;;
47625;SDS011;33342;45.574;9.252;2023-06-26T15:00:21;10.15;;;5.90;;
47625;SDS011;33342;45.574;9.252;2023-06-26T15:02:48;8.82;;;5.40;;
47625;SDS011;33342;45.574;9.252;2023-06-26T15:05:15;9.18;;;5.70;;
47625;SDS011;33342;45.574;9.252;2023-06-26T15:07:42;7.75;;;5.70;;
47625;SDS011;33342;45.574;9.252;2023-06-26T15:10:09;9.40;;;5.70;;
47625;SDS011;33342;45.574;9.252;2023-06-26T15:12:37;7.75;;;5.47;;